Browns Valley, SD

10:13 AM CST on February 10, 2016 (GMT -0600)
APRSWXNET | | Change Station
CLOSE
Current Station
Personal Weather Station
Location: Beardsley, MN
Elevation: 1164 ft
Nearby Weather Stations

Elev 1164 ft 45.54 °N, 96.88 °W | Updated 16 hours ago

Snow
Snow
16 °F
Feels Like 4 °F
N
9
Wind Variable Wind from East
Gusts mph

Today
High -- | Low -- °F
--% Chance of Precip.
Yesterday
High -- | Low -- °F
Precip. -- in
Pressure 30.09 in
Visibility 3.0 miles
Clouds Overcast 900 ft
Windchill 4 °F
Dew Point 9 °F
Humidity 75%
Rainfall in
Snow Depth Not available.
7:37 AM 5:46 PM
Waxing Crescent, 6% visible
METAR KETH 101556Z AUTO 11012KT 3SM -SN OVC009 M13/M15 A3009 RMK AO2
Pressure 30.09 in
Visibility 3.0 miles
Clouds Overcast 900 ft
Windchill 4 °F
Dew Point 9 °F
Humidity 75%
Rainfall in
Snow Depth Not available.
7:37 AM 5:46 PM
Waxing Crescent, 6% visible
METAR KETH 101556Z AUTO 11012KT 3SM -SN OVC009 M13/M15 A3009 RMK AO2

10-Day Weather Forecast

Almanac

Astronomy

Feb. 10, 2016 Rise Set
Actual Time
Civil Twilight
Nautical Twilight
Astronomical Twilight
Moon
Length of Visible Light
Length of Day
Tomorrow will be .
, % of the Moon is Illuminated

Today's Extremes

State Highs State Lows

Community

WunderPhotos

Upload Photos

1,891,864 photos uploaded!

WunderBlog® & News

Nearby

Air Quality

  Air Quality AQ Index Pollutant
Not available.

Snow Depth

Station Depth Elevation

Earthquake Activity

City Distance Mag. Time & Date
Minimum magnitude displayed is 2.5.

Coastal Water Temperatures

Place Temperature

Stations

Nearby Weather Stations

Station Location Temp. Windchill Dew Point Humidity Wind Precip. Elev Updated Type
                   

Watches & Warnings

There are currently no watches in effect.